Terminal Aerodrome Forecast
Issued by NWS

Home | Current Version | Previous Version | Text Only | Print | Product List | Glossary On
Versions: 1 2 3 4 5 6 7 8 9 10 11 12 13
000
FTUS42 KTAE 281120
TAFECP
TAF
KECP 281120Z 2812/2912 04003KT P6SM SCT150 SCT250
     FM281700 VRB15G25KT 2SM TSRA SCT025 BKN040CB
     FM282100 16007KT P6SM BKN150 OVC250
     FM290100 00000KT P6SM SCT250=

USA.gov is the U.S. government's official web portal to all federal, state and local government web resources and services.